Weather at Frederick Municipal Airport

Public forecast

Using degrees Fahrenheit for public forecast. Weather courtesy of forecast.io.

Current aviation weather report (METAR) for Frederick Municipal Airport

Retrieved 2020/09/30 16:47 UTC (52 minutes ago):

KFDK 301647Z 26013G16KT 10SM BKN050 20/08 A2985

Closest aviation forecast (TAF) to Frederick Municipal Airport

Closest forecast is Eastern WV Regional Airport/Shepherd Field, 28.3 nm (52.5 km) W. Retrieved 2020/09/30 12:30 UTC (5 hours ago):

TAF KMRB 301129Z 3012/0112 21004KT P6SM FEW250 FM301500 25012G19KT P6SM FEW250 FM302300 20004KT P6SM FEW100 SCT250